createdAt,value
2018-04-07T00:00:46.889Z,6.93
2018-04-07T00:03:14.336Z,7.03
2018-04-07T00:05:42.543Z,6.97
2018-04-07T00:08:09.983Z,6.57
2018-04-07T00:10:37.435Z,7.53
2018-04-07T00:13:04.912Z,6.87
2018-04-07T00:15:32.368Z,7.60
2018-04-07T00:17:59.799Z,7.07
2018-04-07T00:20:28.004Z,6.70
2018-04-07T00:22:55.452Z,7.30
2018-04-07T00:25:22.907Z,7.13
2018-04-07T00:27:50.358Z,7.27
2018-04-07T00:30:17.810Z,7.17
2018-04-07T00:32:45.256Z,7.17
2018-04-07T00:35:13.463Z,7.13
2018-04-07T00:37:40.900Z,7.30
2018-04-07T00:40:08.355Z,7.40
2018-04-07T00:42:35.804Z,6.90
2018-04-07T00:45:04.044Z,7.10
2018-04-07T00:47:31.484Z,7.03
2018-04-07T00:49:58.915Z,6.70
2018-04-07T00:52:26.360Z,7.07
2018-04-07T00:54:53.808Z,7.27
2018-04-07T00:57:21.266Z,7.10
2018-04-07T00:59:49.472Z,7.40
2018-04-07T01:02:16.916Z,6.93
2018-04-07T01:04:44.353Z,6.70
2018-04-07T01:07:12.564Z,6.97
2018-04-07T01:09:39.995Z,6.70
2018-04-07T01:12:07.451Z,7.37
2018-04-07T01:14:34.897Z,7.40
2018-04-07T01:17:02.380Z,7.50
2018-04-07T01:19:29.793Z,7.77
2018-04-07T01:21:57.269Z,7.40
2018-04-07T01:24:25.496Z,7.90
2018-04-07T01:26:52.940Z,7.97
2018-04-07T01:29:20.396Z,7.33
2018-04-07T01:31:47.869Z,7.50
2018-04-07T01:34:15.306Z,7.80
2018-04-07T01:36:42.748Z,7.67
2018-04-07T01:39:10.208Z,7.20
2018-04-07T01:41:37.644Z,7.40
2018-04-07T01:44:05.107Z,7.00
2018-04-07T01:46:32.547Z,7.70
2018-04-07T01:49:00.774Z,7.53
2018-04-07T01:51:28.211Z,8.50
2018-04-07T01:53:55.663Z,8.40
2018-04-07T01:56:23.107Z,7.83
2018-04-07T01:58:50.563Z,7.97
2018-04-07T02:01:18.019Z,7.50
2018-04-07T02:03:46.227Z,8.20
2018-04-07T02:06:13.689Z,8.17
2018-04-07T02:08:41.147Z,8.13
2018-04-07T02:11:08.588Z,8.37
2018-04-07T02:13:36.034Z,8.77
2018-04-07T02:16:03.495Z,7.80
2018-04-07T02:18:30.936Z,7.70
2018-04-07T02:20:59.148Z,7.73
2018-04-07T02:23:26.596Z,7.27
2018-04-07T02:25:54.052Z,7.83
2018-04-07T02:28:21.496Z,8.10
2018-04-07T02:30:48.952Z,7.40
2018-04-07T02:33:16.399Z,7.83
2018-04-07T02:35:44.608Z,7.23
2018-04-07T02:38:12.056Z,7.83
2018-04-07T02:40:39.510Z,8.43
2018-04-07T02:43:06.956Z,8.27
2018-04-07T02:45:34.412Z,8.70
2018-04-07T02:48:01.859Z,8.23
2018-04-07T02:50:29.316Z,8.13
2018-04-07T02:52:56.760Z,8.27
2018-04-07T02:55:24.983Z,9.33
2018-04-07T02:57:52.440Z,8.87
2018-04-07T03:00:19.896Z,8.63
2018-04-07T03:02:47.368Z,8.80
2018-04-07T03:05:14.826Z,8.83
2018-04-07T03:07:42.256Z,8.57
2018-04-07T03:10:09.716Z,8.80
2018-04-07T03:12:37.155Z,8.63
2018-04-07T03:15:04.615Z,9.00
2018-04-07T03:17:32.064Z,9.17
2018-04-07T03:19:59.521Z,8.90
2018-04-07T03:22:26.964Z,9.60
2018-04-07T03:24:55.171Z,8.80
2018-04-07T03:27:22.623Z,9.03
2018-04-07T03:29:50.079Z,8.20
2018-04-07T03:32:17.525Z,8.47
2018-04-07T03:34:44.977Z,8.67
2018-04-07T03:37:13.213Z,9.57
2018-04-07T03:39:41.435Z,9.33
2018-04-07T03:42:08.863Z,9.97
2018-04-07T03:44:36.303Z,9.63
2018-04-07T03:47:03.756Z,9.30
2018-04-07T03:49:31.212Z,9.77
2018-04-07T03:51:58.668Z,8.93
2018-04-07T03:54:26.131Z,8.67
2018-04-07T03:56:53.551Z,9.13
2018-04-07T03:59:20.999Z,9.50
2018-04-07T04:01:48.455Z,9.23
2018-04-07T04:04:15.904Z,9.80
2018-04-07T04:06:44.117Z,9.73
2018-04-07T04:09:11.579Z,9.83
2018-04-07T04:11:39.051Z,8.90
2018-04-07T04:14:06.504Z,8.97
2018-04-07T04:16:33.939Z,9.17
2018-04-07T04:19:01.384Z,9.93
2018-04-07T04:21:28.856Z,10.63
2018-04-07T04:23:56.300Z,10.30
2018-04-07T04:26:23.762Z,10.43
2018-04-07T04:28:51.207Z,9.83
2018-04-07T04:31:18.664Z,9.67
2018-04-07T04:33:46.105Z,9.10
2018-04-07T04:36:13.564Z,10.00
2018-04-07T04:38:41.019Z,9.67
2018-04-07T04:41:09.239Z,9.67
2018-04-07T04:43:36.676Z,10.43
2018-04-07T04:46:04.129Z,8.43
2018-04-07T04:48:31.579Z,12.13
2018-04-07T04:50:59.034Z,9.70
2018-04-07T04:53:26.479Z,11.03
2018-04-07T04:55:53.934Z,10.97
2018-04-07T04:58:22.167Z,25.17
2018-04-07T05:00:49.609Z,9.67
2018-04-07T05:03:17.047Z,9.70
2018-04-07T05:05:44.495Z,8.83
2018-04-07T05:08:11.938Z,8.27
2018-04-07T05:10:39.399Z,8.33
2018-04-07T05:13:06.861Z,8.40
2018-04-07T05:15:34.312Z,8.20
2018-04-07T05:18:01.771Z,8.37
2018-04-07T05:20:29.226Z,8.83
2018-04-07T05:22:56.662Z,9.90
2018-04-07T05:25:24.901Z,11.63
2018-04-07T05:27:52.353Z,45.73
2018-04-07T05:30:19.808Z,9.23
2018-04-07T05:32:47.268Z,9.30
2018-04-07T05:35:14.711Z,10.70
2018-04-07T05:37:42.155Z,22.87
2018-04-07T05:40:09.615Z,18.30
2018-04-07T05:42:37.060Z,20.87
2018-04-07T05:45:04.518Z,13.80
2018-04-07T05:47:31.975Z,16.57
2018-04-07T05:49:59.430Z,11.63
2018-04-07T05:52:26.875Z,11.50
2018-04-07T05:54:54.310Z,12.60
2018-04-07T05:57:21.771Z,16.23
2018-04-07T05:59:49.207Z,10.33
2018-04-07T06:02:16.654Z,10.87
2018-04-07T06:04:44.107Z,11.10
2018-04-07T06:07:11.595Z,11.20
2018-04-07T06:09:39.044Z,10.70
2018-04-07T06:12:06.495Z,10.73
2018-04-07T06:14:33.928Z,10.33
2018-04-07T06:17:01.386Z,10.33
2018-04-07T06:19:28.831Z,12.93
2018-04-07T06:21:56.293Z,11.93
2018-04-07T06:24:23.744Z,11.90
2018-04-07T06:26:51.200Z,9.17
2018-04-07T06:29:18.647Z,9.60
2018-04-07T06:31:46.108Z,9.87
2018-04-07T06:34:13.547Z,9.37
2018-04-07T06:36:41.793Z,9.97
2018-04-07T06:39:09.232Z,9.87
2018-04-07T06:41:36.712Z,8.90
2018-04-07T06:44:04.168Z,9.40
2018-04-07T06:46:31.621Z,9.97
2018-04-07T06:48:59.059Z,9.87
2018-04-07T06:51:26.516Z,9.93
2018-04-07T06:53:53.959Z,9.93
2018-04-07T06:56:21.419Z,9.90
2018-04-07T06:58:48.880Z,9.07
2018-04-07T07:01:16.331Z,9.07
2018-04-07T07:03:43.791Z,9.30
2018-04-07T07:06:11.244Z,8.83
2018-04-07T07:08:38.696Z,9.30
2018-04-07T07:11:06.153Z,9.10
2018-04-07T07:13:33.589Z,9.50
2018-04-07T07:16:01.835Z,9.57
2018-04-07T07:18:29.259Z,9.00
2018-04-07T07:20:56.715Z,9.63
2018-04-07T07:23:24.162Z,8.90
2018-04-07T07:25:51.613Z,9.33
2018-04-07T07:28:19.055Z,8.97
2018-04-07T07:30:46.538Z,9.17
2018-04-07T07:33:14.008Z,9.33
2018-04-07T07:35:41.478Z,8.97
2018-04-07T07:38:08.919Z,9.43
2018-04-07T07:40:36.375Z,9.03
2018-04-07T07:43:03.839Z,9.27
2018-04-07T07:45:31.299Z,8.97
2018-04-07T07:47:58.748Z,9.23
2018-04-07T07:50:26.207Z,9.40
2018-04-07T07:52:53.682Z,9.13
2018-04-07T07:55:21.160Z,11.53
2018-04-07T07:57:49.399Z,10.17
2018-04-07T08:00:16.856Z,9.50
2018-04-07T08:02:44.299Z,8.83
2018-04-07T08:05:11.747Z,8.03
2018-04-07T08:07:39.212Z,9.37
2018-04-07T08:10:06.683Z,8.80
2018-04-07T08:12:34.123Z,9.20
2018-04-07T08:15:01.580Z,8.40
2018-04-07T08:17:29.036Z,8.67
2018-04-07T08:19:56.500Z,8.67
2018-04-07T08:22:23.960Z,8.43
2018-04-07T08:24:51.412Z,8.17
2018-04-07T08:27:18.860Z,8.60
2018-04-07T08:29:46.314Z,9.00
2018-04-07T08:32:13.809Z,8.30
2018-04-07T08:34:41.231Z,8.60
2018-04-07T08:37:08.691Z,8.73
2018-04-07T08:39:36.167Z,9.37
2018-04-07T08:42:03.599Z,8.13
2018-04-07T08:44:31.063Z,9.23
2018-04-07T08:46:58.520Z,8.50
2018-04-07T08:49:25.972Z,8.30
2018-04-07T08:51:53.452Z,8.13
2018-04-07T08:54:20.904Z,8.50
2018-04-07T08:56:48.396Z,7.43
2018-04-07T08:59:15.823Z,7.57
2018-04-07T09:01:43.307Z,8.03
2018-04-07T09:04:10.743Z,7.67
2018-04-07T09:06:38.203Z,7.53
2018-04-07T09:09:05.663Z,7.90
2018-04-07T09:11:33.120Z,8.30
2018-04-07T09:14:00.600Z,7.63
2018-04-07T09:16:28.056Z,7.67
2018-04-07T09:18:55.522Z,7.60
2018-04-07T09:21:22.978Z,7.57
2018-04-07T09:23:50.426Z,8.20
2018-04-07T09:26:17.871Z,7.83
2018-04-07T09:28:45.339Z,7.00
2018-04-07T09:31:18.582Z,7.37
2018-04-07T09:33:46.037Z,8.30
2018-04-07T09:36:13.491Z,8.03
2018-04-07T09:38:40.952Z,6.70
2018-04-07T09:41:08.409Z,6.97
2018-04-07T09:43:35.860Z,6.63
2018-04-07T09:46:03.284Z,7.63
2018-04-07T09:48:31.507Z,6.60
2018-04-07T09:50:58.974Z,6.53
2018-04-07T09:53:26.414Z,6.50
2018-04-07T09:55:53.865Z,6.80
2018-04-07T09:58:21.324Z,6.37
2018-04-07T10:00:48.787Z,5.77
2018-04-07T10:03:21.798Z,6.27
2018-04-07T10:05:49.339Z,6.27
2018-04-07T10:08:16.807Z,6.00
2018-04-07T10:10:44.261Z,5.17
2018-04-07T10:13:11.721Z,5.03
2018-04-07T10:15:39.171Z,5.40
2018-04-07T10:18:06.623Z,5.17
2018-04-07T10:20:34.076Z,4.97
2018-04-07T10:23:01.530Z,5.10
2018-04-07T10:25:28.987Z,4.77
2018-04-07T10:27:56.447Z,5.47
2018-04-07T10:30:23.900Z,5.10
2018-04-07T10:32:51.358Z,4.57
2018-04-07T10:35:18.818Z,4.63
2018-04-07T10:37:46.273Z,4.27
2018-04-07T10:40:13.760Z,3.60
2018-04-07T10:42:41.207Z,3.70
2018-04-07T10:45:08.655Z,3.67
2018-04-07T10:47:36.099Z,3.03
2018-04-07T10:50:03.559Z,3.20
2018-04-07T10:52:31.016Z,2.83
2018-04-07T10:54:58.475Z,3.10
2018-04-07T10:57:25.920Z,2.23
2018-04-07T10:59:53.427Z,2.60
2018-04-07T11:02:20.903Z,2.57
2018-04-07T11:04:48.353Z,2.47
2018-04-07T11:07:15.796Z,2.40
2018-04-07T11:09:43.252Z,2.20
2018-04-07T11:12:10.696Z,2.10
2018-04-07T11:14:38.167Z,2.20
2018-04-07T11:17:05.613Z,1.70
2018-04-07T11:19:33.059Z,1.90
2018-04-07T11:22:00.519Z,5.07
2018-04-07T11:24:27.963Z,2.10
2018-04-07T11:26:55.416Z,2.13
2018-04-07T11:29:22.876Z,2.40
2018-04-07T11:31:50.331Z,2.40
2018-04-07T11:34:17.791Z,1.80
2018-04-07T11:36:45.245Z,1.50
2018-04-07T11:39:12.680Z,1.90
2018-04-07T11:41:40.899Z,2.07
2018-04-07T11:44:08.355Z,2.60
2018-04-07T11:46:35.828Z,2.20
2018-04-07T11:49:03.275Z,2.00
2018-04-07T11:51:30.726Z,2.00
2018-04-07T11:53:58.931Z,1.80
2018-04-07T11:56:26.370Z,2.00
2018-04-07T11:58:53.819Z,2.27
2018-04-07T12:01:21.266Z,2.50
2018-04-07T12:03:48.723Z,2.40
2018-04-07T12:06:16.167Z,1.70
2018-04-07T12:08:43.625Z,1.80
2018-04-07T12:11:11.084Z,1.80
2018-04-07T12:13:38.539Z,1.87
2018-04-07T12:16:05.997Z,2.20
2018-04-07T12:18:34.449Z,2.13
2018-04-07T12:21:02.663Z,1.70
2018-04-07T12:23:30.123Z,2.10
2018-04-07T12:25:57.588Z,1.67
2018-04-07T12:28:25.047Z,1.80
2018-04-07T12:30:52.484Z,2.03
2018-04-07T12:33:19.943Z,1.70
2018-04-07T12:35:47.395Z,1.93
2018-04-07T12:38:14.852Z,2.00
2018-04-07T12:40:42.332Z,1.80
2018-04-07T12:43:09.765Z,2.00
2018-04-07T12:45:37.199Z,2.20
2018-04-07T12:48:05.415Z,2.27
2018-04-07T12:50:32.867Z,2.00
2018-04-07T12:53:00.323Z,1.97
2018-04-07T12:55:27.775Z,1.70
2018-04-07T12:57:55.228Z,2.20
2018-04-07T13:00:22.668Z,2.30
2018-04-07T13:02:50.125Z,1.77
2018-04-07T13:05:17.571Z,2.53
2018-04-07T13:07:45.787Z,1.90
2018-04-07T13:10:13.226Z,1.83
2018-04-07T13:12:40.669Z,1.77
2018-04-07T13:15:08.119Z,2.27
2018-04-07T13:17:36.340Z,2.20
2018-04-07T13:20:03.800Z,2.13
2018-04-07T13:22:31.259Z,2.07
2018-04-07T13:24:58.718Z,3.10
2018-04-07T13:27:26.217Z,2.20
2018-04-07T13:29:53.605Z,1.73
2018-04-07T13:32:21.064Z,2.13
2018-04-07T13:34:48.504Z,2.00
2018-04-07T13:37:15.985Z,2.80
2018-04-07T13:39:43.435Z,1.60
2018-04-07T13:42:10.894Z,1.93
2018-04-07T13:44:38.335Z,1.90
2018-04-07T13:47:05.790Z,1.70
2018-04-07T13:49:33.224Z,1.80
2018-04-07T13:52:01.452Z,4.87
2018-04-07T13:54:28.896Z,2.10
2018-04-07T13:56:56.353Z,2.90
2018-04-07T13:59:23.806Z,1.87
2018-04-07T14:01:51.250Z,2.97
2018-04-07T14:04:18.707Z,4.37
2018-04-07T14:06:46.140Z,3.30
2018-04-07T14:09:14.361Z,1.87
2018-04-07T14:11:41.810Z,4.60
2018-04-07T14:14:09.251Z,4.70
2018-04-07T14:16:36.699Z,6.30
2018-04-07T14:19:04.923Z,6.93
2018-04-07T14:21:32.364Z,4.30
2018-04-07T14:23:59.819Z,4.53
2018-04-07T14:26:27.270Z,4.07
2018-04-07T14:28:54.702Z,3.90
2018-04-07T14:31:22.916Z,5.60
2018-04-07T14:33:50.376Z,4.83
2018-04-07T14:36:17.827Z,6.53
2018-04-07T14:38:45.283Z,4.10
2018-04-07T14:41:12.737Z,4.67
2018-04-07T14:43:40.208Z,3.80
2018-04-07T14:46:07.656Z,4.60
2018-04-07T14:48:35.115Z,3.53
2018-04-07T14:51:02.561Z,4.00
2018-04-07T14:53:29.979Z,3.83
2018-04-07T14:55:58.197Z,3.90
2018-04-07T14:58:25.636Z,5.50
2018-04-07T15:00:53.084Z,5.90
2018-04-07T15:03:20.543Z,4.50
2018-04-07T15:05:48.760Z,4.53
2018-04-07T15:08:16.219Z,4.60
2018-04-07T15:10:43.679Z,3.80
2018-04-07T15:13:11.140Z,4.70
2018-04-07T15:15:38.595Z,4.83
2018-04-07T15:18:06.804Z,5.03
2018-04-07T15:20:35.038Z,8.60
2018-04-07T15:23:02.480Z,4.63
2018-04-07T15:25:29.937Z,4.80
2018-04-07T15:27:57.379Z,4.53
2018-04-07T15:30:24.839Z,7.43
2018-04-07T15:32:52.279Z,6.03
2018-04-07T15:35:19.748Z,6.17
2018-04-07T15:37:47.202Z,7.00
2018-04-07T15:40:14.646Z,9.83
2018-04-07T15:42:42.103Z,7.13
2018-04-07T15:45:10.313Z,7.13
2018-04-07T15:47:37.783Z,15.30
2018-04-07T15:50:05.554Z,7.60
2018-04-07T15:52:32.998Z,7.87
2018-04-07T15:55:00.448Z,6.00
2018-04-07T15:57:28.716Z,5.70
2018-04-07T15:59:56.163Z,4.97
2018-04-07T16:02:23.605Z,5.70
2018-04-07T16:04:51.815Z,5.20
2018-04-07T16:07:19.271Z,5.43
2018-04-07T16:09:46.724Z,5.13
2018-04-07T16:12:14.159Z,5.60
2018-04-07T16:14:41.619Z,5.50
2018-04-07T16:17:09.064Z,4.90
2018-04-07T16:19:37.267Z,4.90
2018-04-07T16:22:04.727Z,4.80
2018-04-07T16:24:32.163Z,4.50
2018-04-07T16:26:59.603Z,5.17
2018-04-07T16:29:27.823Z,5.50
2018-04-07T16:31:55.263Z,6.00
2018-04-07T16:34:22.723Z,7.50
2018-04-07T16:36:50.163Z,8.70
2018-04-07T16:39:17.637Z,7.40
2018-04-07T16:41:45.080Z,6.57
2018-04-07T16:44:12.533Z,4.63
2018-04-07T16:46:39.976Z,3.93
2018-04-07T16:49:08.183Z,5.10
2018-04-07T16:51:35.640Z,3.77
2018-04-07T16:54:03.087Z,3.90
2018-04-07T16:56:30.520Z,5.07
2018-04-07T16:58:58.732Z,3.43
2018-04-07T17:01:26.184Z,5.53
2018-04-07T17:03:53.629Z,4.57
2018-04-07T17:06:21.583Z,3.13
2018-04-07T17:08:49.795Z,2.73
2018-04-07T17:11:17.235Z,3.40
2018-04-07T17:13:44.696Z,3.53
2018-04-07T17:16:12.136Z,2.67
2018-04-07T17:18:39.578Z,2.90
2018-04-07T17:21:07.778Z,3.00
2018-04-07T17:23:35.226Z,2.97
2018-04-07T17:26:02.684Z,2.50
2018-04-07T17:28:30.138Z,3.40
2018-04-07T17:30:58.338Z,2.60
2018-04-07T17:33:25.788Z,2.53
2018-04-07T17:35:53.222Z,2.50
2018-04-07T17:38:21.447Z,4.10
2018-04-07T17:40:48.880Z,2.77
2018-04-07T17:43:16.385Z,3.63
2018-04-07T17:45:43.768Z,3.30
2018-04-07T17:48:11.983Z,2.40
2018-04-07T17:50:39.423Z,3.00
2018-04-07T17:53:06.870Z,3.20
2018-04-07T17:55:34.311Z,2.60
2018-04-07T17:58:02.518Z,2.67
2018-04-07T18:00:29.959Z,2.70
2018-04-07T18:02:57.408Z,2.37
2018-04-07T18:05:25.607Z,2.80
2018-04-07T18:07:53.061Z,2.50
2018-04-07T18:10:20.491Z,3.30
2018-04-07T18:12:48.699Z,4.23
2018-04-07T18:15:16.139Z,3.00
2018-04-07T18:17:43.581Z,3.60
2018-04-07T18:20:11.800Z,3.37
2018-04-07T18:22:39.236Z,3.90
2018-04-07T18:25:06.699Z,3.27
2018-04-07T18:27:34.119Z,3.33
2018-04-07T18:30:02.336Z,4.80
2018-04-07T18:32:29.772Z,4.27
2018-04-07T18:34:57.219Z,4.43
2018-04-07T18:37:25.418Z,4.60
2018-04-07T18:39:52.867Z,4.83
2018-04-07T18:42:20.311Z,5.50
2018-04-07T18:44:48.515Z,5.30
2018-04-07T18:47:15.955Z,5.70
2018-04-07T18:49:43.403Z,5.30
2018-04-07T18:52:10.835Z,5.40
2018-04-07T18:54:39.047Z,5.37
2018-04-07T18:57:06.487Z,5.30
2018-04-07T18:59:33.927Z,4.40
2018-04-07T19:02:02.868Z,4.60
2018-04-07T19:04:30.315Z,4.37
2018-04-07T19:06:57.751Z,3.83
2018-04-07T19:09:25.204Z,3.30
2018-04-07T19:11:53.411Z,4.27
2018-04-07T19:14:20.864Z,5.83
2018-04-07T19:16:48.299Z,4.50
2018-04-07T19:19:15.746Z,4.40
2018-04-07T19:21:43.193Z,3.70
2018-04-07T19:24:11.403Z,4.10
2018-04-07T19:26:38.851Z,4.10
2018-04-07T19:29:06.299Z,5.40
2018-04-07T19:31:33.736Z,4.50
2018-04-07T19:34:01.947Z,4.30
2018-04-07T19:36:29.387Z,4.00
2018-04-07T19:38:56.840Z,4.10
2018-04-07T19:41:25.095Z,4.10
2018-04-07T19:43:52.490Z,3.53
2018-04-07T19:46:19.911Z,4.43
2018-04-07T19:48:48.123Z,4.60
2018-04-07T19:51:15.559Z,3.80
2018-04-07T19:53:43.012Z,4.47
2018-04-07T19:56:11.213Z,6.53
2018-04-07T19:58:39.262Z,5.90
2018-04-07T20:01:07.467Z,4.90
2018-04-07T20:03:34.927Z,3.43
2018-04-07T20:06:02.361Z,3.80
2018-04-07T20:08:29.811Z,3.23
2018-04-07T20:10:57.248Z,3.30
2018-04-07T20:13:25.460Z,3.43
2018-04-07T20:15:52.909Z,11.87
2018-04-07T20:18:20.358Z,28.13
2018-04-07T20:20:47.813Z,19.13
2018-04-07T20:23:16.025Z,25.90
2018-04-07T20:25:43.499Z,27.73
2018-04-07T20:28:10.931Z,27.40
2018-04-07T20:30:38.392Z,23.67
2018-04-07T20:33:05.834Z,19.53
2018-04-07T20:35:33.289Z,18.60
2018-04-07T20:38:00.735Z,14.20
2018-04-07T20:40:28.192Z,18.30
2018-04-07T20:42:55.638Z,17.43
2018-04-07T20:45:23.859Z,51.10
2018-04-07T20:47:51.303Z,32.87
2018-04-07T20:50:18.766Z,10.30
2018-04-07T20:52:46.260Z,8.60
2018-04-07T20:55:13.695Z,7.10
2018-04-07T20:57:41.139Z,8.43
2018-04-07T21:00:08.583Z,7.40
2018-04-07T21:02:36.026Z,7.47
2018-04-07T21:05:03.783Z,6.77
2018-04-07T21:07:31.223Z,7.83
2018-04-07T21:09:59.439Z,7.07
2018-04-07T21:12:26.874Z,5.43
2018-04-07T21:14:54.316Z,5.70
2018-04-07T21:17:22.532Z,5.17
2018-04-07T21:19:49.991Z,5.60
2018-04-07T21:22:17.426Z,5.40
2018-04-07T21:24:44.876Z,5.40
2018-04-07T21:27:12.307Z,5.50
2018-04-07T21:29:39.762Z,5.20
2018-04-07T21:32:07.206Z,5.37
2018-04-07T21:34:34.655Z,6.63
2018-04-07T21:37:02.092Z,6.50
2018-04-07T21:39:29.546Z,5.70
2018-04-07T21:41:56.980Z,6.43
2018-04-07T21:44:24.422Z,5.87
2018-04-07T21:46:52.637Z,6.63
2018-04-07T21:49:20.087Z,5.10
2018-04-07T21:51:47.515Z,6.43
2018-04-07T21:54:14.971Z,6.00
2018-04-07T21:56:43.183Z,6.53
2018-04-07T21:59:10.631Z,6.70
2018-04-07T22:01:38.078Z,6.57
2018-04-07T22:04:05.524Z,6.30
2018-04-07T22:06:32.959Z,4.30
2018-04-07T22:09:01.179Z,4.53
2018-04-07T22:11:28.624Z,5.17
2018-04-07T22:13:56.092Z,5.03
2018-04-07T22:16:23.572Z,4.90
2018-04-07T22:18:51.033Z,4.93
2018-04-07T22:21:18.577Z,4.67
2018-04-07T22:23:46.033Z,5.10
2018-04-07T22:26:13.500Z,4.83
2018-04-07T22:28:40.944Z,5.20
2018-04-07T22:31:08.424Z,6.50
2018-04-07T22:33:36.648Z,6.00
2018-04-07T22:36:04.136Z,5.70
2018-04-07T22:38:31.586Z,5.63
2018-04-07T22:40:59.056Z,5.17
2018-04-07T22:43:26.507Z,6.47
2018-04-07T22:45:53.983Z,6.67
2018-04-07T22:48:21.440Z,6.37
2018-04-07T22:50:48.903Z,7.13
2018-04-07T22:53:16.380Z,6.60
2018-04-07T22:55:43.850Z,8.50
2018-04-07T22:58:12.096Z,8.87
2018-04-07T23:00:39.566Z,7.87
2018-04-07T23:03:07.032Z,5.40
2018-04-07T23:05:34.507Z,7.60
2018-04-07T23:08:02.741Z,6.17
2018-04-07T23:10:30.211Z,6.00
2018-04-07T23:12:57.689Z,6.30
2018-04-07T23:15:25.935Z,9.53
2018-04-07T23:17:53.408Z,9.70
2018-04-07T23:20:20.885Z,8.63
2018-04-07T23:22:49.117Z,7.33
2018-04-07T23:25:16.591Z,8.43
2018-04-07T23:27:44.057Z,8.40
2018-04-07T23:30:11.536Z,8.60
2018-04-07T23:32:39.777Z,14.97
2018-04-07T23:35:07.263Z,11.63
2018-04-07T23:37:35.508Z,9.37
2018-04-07T23:40:02.996Z,8.50
2018-04-07T23:42:31.217Z,7.30
2018-04-07T23:44:58.695Z,7.07
2018-04-07T23:47:26.160Z,6.70
2018-04-07T23:49:53.632Z,6.37
2018-04-07T23:52:21.096Z,7.60
2018-04-07T23:54:49.335Z,8.03
2018-04-07T23:57:16.796Z,5.43
2018-04-07T23:59:44.275Z,8.13
